sensor_id;sensor_type;location;lat;lon;timestamp;pressure;altitude;pressure_sealevel;temperature;humidity
34237;BME280;20501;45.956;13.632;2024-03-23T00:53:34;100469.88;;;11.42;81.99
34237;BME280;20501;45.956;13.632;2024-03-23T00:56:00;100469.66;;;11.64;81.20
34237;BME280;20501;45.956;13.632;2024-03-23T00:58:25;100454.19;;;11.46;81.60
34237;BME280;20501;45.956;13.632;2024-03-23T01:00:50;100450.47;;;11.47;82.16
34237;BME280;20501;45.956;13.632;2024-03-23T01:03:16;100450.81;;;11.44;82.60
34237;BME280;20501;45.956;13.632;2024-03-23T01:05:41;100449.22;;;11.41;81.98
34237;BME280;20501;45.956;13.632;2024-03-23T01:08:06;100445.97;;;11.38;82.49
34237;BME280;20501;45.956;13.632;2024-03-23T01:10:32;100440.81;;;11.17;82.84
34237;BME280;20501;45.956;13.632;2024-03-23T01:12:57;100441.25;;;11.12;83.25
34237;BME280;20501;45.956;13.632;2024-03-23T01:15:23;100436.59;;;10.94;84.06
34237;BME280;20501;45.956;13.632;2024-03-23T01:17:48;100434.69;;;11.05;82.77
34237;BME280;20501;45.956;13.632;2024-03-23T01:20:13;100437.56;;;11.03;83.46
34237;BME280;20501;45.956;13.632;2024-03-23T01:22:39;100429.84;;;11.08;83.21
34237;BME280;20501;45.956;13.632;2024-03-23T01:25:04;100440.81;;;11.07;82.73
34237;BME280;20501;45.956;13.632;2024-03-23T01:27:30;100439.56;;;11.01;83.34
34237;BME280;20501;45.956;13.632;2024-03-23T01:29:55;100435.31;;;10.98;82.42
34237;BME280;20501;45.956;13.632;2024-03-23T01:32:21;100434.75;;;10.85;83.38
34237;BME280;20501;45.956;13.632;2024-03-23T01:34:46;100440.16;;;10.95;82.91
34237;BME280;20501;45.956;13.632;2024-03-23T01:37:12;100445.25;;;10.98;82.51
34237;BME280;20501;45.956;13.632;2024-03-23T01:39:37;100453.06;;;11.01;82.80
34237;BME280;20501;45.956;13.632;2024-03-23T01:42:03;100446.41;;;10.95;83.11
34237;BME280;20501;45.956;13.632;2024-03-23T01:44:29;100451.13;;;10.83;83.16
34237;BME280;20501;45.956;13.632;2024-03-23T01:46:54;100440.75;;;10.79;83.66
34237;BME280;20501;45.956;13.632;2024-03-23T01:49:20;100446.00;;;10.80;83.24
34237;BME280;20501;45.956;13.632;2024-03-23T01:51:46;100445.47;;;10.57;84.33
34237;BME280;20501;45.956;13.632;2024-03-23T01:54:11;100434.09;;;10.73;83.81
34237;BME280;20501;45.956;13.632;2024-03-23T01:56:36;100433.09;;;10.55;84.67
34237;BME280;20501;45.956;13.632;2024-03-23T01:59:03;100426.00;;;10.44;84.31
34237;BME280;20501;45.956;13.632;2024-03-23T02:01:29;100430.97;;;10.38;85.40
34237;BME280;20501;45.956;13.632;2024-03-23T02:03:54;100426.56;;;10.47;85.40
34237;BME280;20501;45.956;13.632;2024-03-23T02:06:19;100418.91;;;10.52;84.75
34237;BME280;20501;45.956;13.632;2024-03-23T02:08:45;100419.31;;;10.48;85.12
34237;BME280;20501;45.956;13.632;2024-03-23T02:11:10;100423.03;;;10.47;85.08
34237;BME280;20501;45.956;13.632;2024-03-23T02:13:36;100414.75;;;10.29;85.90
34237;BME280;20501;45.956;13.632;2024-03-23T02:16:01;100408.81;;;10.45;85.01
34237;BME280;20501;45.956;13.632;2024-03-23T02:18:27;100405.13;;;10.46;84.58
34237;BME280;20501;45.956;13.632;2024-03-23T02:20:52;100399.81;;;10.64;84.21
34237;BME280;20501;45.956;13.632;2024-03-23T02:23:18;100394.69;;;10.71;84.44
34237;BME280;20501;45.956;13.632;2024-03-23T02:25:44;100389.97;;;10.73;83.94
34237;BME280;20501;45.956;13.632;2024-03-23T02:28:10;100383.06;;;10.50;84.09
34237;BME280;20501;45.956;13.632;2024-03-23T02:30:36;100383.22;;;10.39;84.89
34237;BME280;20501;45.956;13.632;2024-03-23T02:33:01;100383.19;;;10.29;85.58
34237;BME280;20501;45.956;13.632;2024-03-23T02:35:26;100381.06;;;10.23;85.68
34237;BME280;20501;45.956;13.632;2024-03-23T02:37:52;100388.16;;;10.34;85.24
34237;BME280;20501;45.956;13.632;2024-03-23T02:40:20;100381.63;;;10.17;85.62
34237;BME280;20501;45.956;13.632;2024-03-23T02:42:46;100373.66;;;10.35;84.97
34237;BME280;20501;45.956;13.632;2024-03-23T02:45:11;100377.41;;;10.44;84.87
34237;BME280;20501;45.956;13.632;2024-03-23T02:47:37;100372.81;;;10.25;85.35
34237;BME280;20501;45.956;13.632;2024-03-23T02:50:02;100366.88;;;10.21;85.68
34237;BME280;20501;45.956;13.632;2024-03-23T02:52:28;100371.41;;;10.11;85.85
34237;BME280;20501;45.956;13.632;2024-03-23T02:54:53;100370.56;;;10.00;86.33
34237;BME280;20501;45.956;13.632;2024-03-23T02:57:19;100374.41;;;10.17;86.15
34237;BME280;20501;45.956;13.632;2024-03-23T02:59:44;100372.28;;;10.31;85.32
34237;BME280;20501;45.956;13.632;2024-03-23T03:02:10;100372.56;;;10.37;85.11
34237;BME280;20501;45.956;13.632;2024-03-23T03:04:36;100365.59;;;10.45;84.56
34237;BME280;20501;45.956;13.632;2024-03-23T03:07:01;100368.84;;;10.19;85.04
34237;BME280;20501;45.956;13.632;2024-03-23T03:09:27;100363.16;;;9.93;86.63
34237;BME280;20501;45.956;13.632;2024-03-23T03:11:52;100364.59;;;9.87;87.33
34237;BME280;20501;45.956;13.632;2024-03-23T03:14:17;100369.13;;;10.16;86.50
34237;BME280;20501;45.956;13.632;2024-03-23T03:16:43;100360.31;;;10.23;85.42
34237;BME280;20501;45.956;13.632;2024-03-23T03:19:08;100358.06;;;10.09;85.08
34237;BME280;20501;45.956;13.632;2024-03-23T03:21:35;100357.78;;;9.93;85.33
34237;BME280;20501;45.956;13.632;2024-03-23T03:24:01;100352.09;;;9.76;85.70
34237;BME280;20501;45.956;13.632;2024-03-23T03:26:27;100367.00;;;9.80;87.27
34237;BME280;20501;45.956;13.632;2024-03-23T03:28:52;100362.44;;;9.90;86.41
34237;BME280;20501;45.956;13.632;2024-03-23T03:31:18;100365.31;;;9.99;86.22
34237;BME280;20501;45.956;13.632;2024-03-23T03:33:44;100358.78;;;10.01;84.82
34237;BME280;20501;45.956;13.632;2024-03-23T03:36:10;100362.31;;;9.82;86.20
34237;BME280;20501;45.956;13.632;2024-03-23T03:38:35;100366.69;;;9.73;86.57
34237;BME280;20501;45.956;13.632;2024-03-23T03:41:02;100368.56;;;9.73;86.59
34237;BME280;20501;45.956;13.632;2024-03-23T03:43:27;100361.19;;;9.75;86.48
34237;BME280;20501;45.956;13.632;2024-03-23T03:45:54;100358.44;;;9.65;87.21
34237;BME280;20501;45.956;13.632;2024-03-23T03:48:19;100353.34;;;9.72;86.47
34237;BME280;20501;45.956;13.632;2024-03-23T03:50:45;100354.63;;;9.68;86.54
34237;BME280;20501;45.956;13.632;2024-03-23T03:53:10;100363.16;;;9.73;86.32
34237;BME280;20501;45.956;13.632;2024-03-23T03:55:36;100365.81;;;9.63;86.14
34237;BME280;20501;45.956;13.632;2024-03-23T03:58:01;100357.44;;;9.56;87.26
34237;BME280;20501;45.956;13.632;2024-03-23T04:00:27;100361.03;;;9.86;85.06
34237;BME280;20501;45.956;13.632;2024-03-23T04:02:52;100356.34;;;9.79;85.90
34237;BME280;20501;45.956;13.632;2024-03-23T04:05:18;100357.47;;;9.86;85.48
34237;BME280;20501;45.956;13.632;2024-03-23T04:07:44;100362.72;;;9.78;85.47
34237;BME280;20501;45.956;13.632;2024-03-23T04:10:09;100361.88;;;9.67;85.66
34237;BME280;20501;45.956;13.632;2024-03-23T04:12:35;100361.72;;;9.88;85.32
34237;BME280;20501;45.956;13.632;2024-03-23T04:15:00;100358.19;;;9.68;85.72
34237;BME280;20501;45.956;13.632;2024-03-23T04:17:29;100357.03;;;9.71;85.09
34237;BME280;20501;45.956;13.632;2024-03-23T04:19:57;100362.81;;;9.56;86.05
34237;BME280;20501;45.956;13.632;2024-03-23T04:22:23;100357.44;;;9.47;86.72
34237;BME280;20501;45.956;13.632;2024-03-23T04:24:57;100359.03;;;9.79;85.90
34237;BME280;20501;45.956;13.632;2024-03-23T04:27:23;100357.06;;;9.90;84.87
34237;BME280;20501;45.956;13.632;2024-03-23T04:29:49;100346.97;;;9.73;84.88
34237;BME280;20501;45.956;13.632;2024-03-23T04:32:15;100351.63;;;9.61;85.57
34237;BME280;20501;45.956;13.632;2024-03-23T04:34:41;100354.06;;;9.74;84.91
34237;BME280;20501;45.956;13.632;2024-03-23T04:37:07;100355.16;;;9.52;85.66
34237;BME280;20501;45.956;13.632;2024-03-23T04:39:32;100348.78;;;9.43;86.13
34237;BME280;20501;45.956;13.632;2024-03-23T04:41:58;100348.63;;;9.44;86.36
34237;BME280;20501;45.956;13.632;2024-03-23T04:44:23;100353.03;;;9.45;86.47
34237;BME280;20501;45.956;13.632;2024-03-23T04:46:49;100352.03;;;9.47;86.56
34237;BME280;20501;45.956;13.632;2024-03-23T04:49:14;100346.75;;;9.35;85.45
34237;BME280;20501;45.956;13.632;2024-03-23T04:51:39;100350.63;;;9.62;85.99
34237;BME280;20501;45.956;13.632;2024-03-23T04:54:06;100343.41;;;9.72;84.65
34237;BME280;20501;45.956;13.632;2024-03-23T04:56:32;100337.81;;;9.35;85.69
34237;BME280;20501;45.956;13.632;2024-03-23T04:58:58;100341.78;;;9.31;86.00
34237;BME280;20501;45.956;13.632;2024-03-23T05:01:27;100334.44;;;9.52;85.54
34237;BME280;20501;45.956;13.632;2024-03-23T05:03:52;100333.47;;;9.63;84.46
34237;BME280;20501;45.956;13.632;2024-03-23T05:06:18;100337.28;;;9.60;84.24
34237;BME280;20501;45.956;13.632;2024-03-23T05:08:44;100338.44;;;9.58;84.27
34237;BME280;20501;45.956;13.632;2024-03-23T05:11:09;100338.94;;;9.32;85.60
34237;BME280;20501;45.956;13.632;2024-03-23T05:13:35;100330.44;;;9.37;85.97
34237;BME280;20501;45.956;13.632;2024-03-23T05:16:00;100329.03;;;9.42;85.95
34237;BME280;20501;45.956;13.632;2024-03-23T05:18:26;100326.94;;;9.56;85.08
34237;BME280;20501;45.956;13.632;2024-03-23T05:20:56;100321.97;;;9.51;84.86
34237;BME280;20501;45.956;13.632;2024-03-23T05:23:22;100321.50;;;9.36;86.14
34237;BME280;20501;45.956;13.632;2024-03-23T05:25:48;100324.06;;;9.38;86.13
34237;BME280;20501;45.956;13.632;2024-03-23T05:28:13;100328.41;;;9.29;86.61
34237;BME280;20501;45.956;13.632;2024-03-23T05:30:39;100324.88;;;9.28;86.46
34237;BME280;20501;45.956;13.632;2024-03-23T05:33:05;100322.91;;;9.31;86.29
34237;BME280;20501;45.956;13.632;2024-03-23T05:35:30;100320.53;;;9.47;85.85
34237;BME280;20501;45.956;13.632;2024-03-23T05:37:57;100328.75;;;9.45;85.78
34237;BME280;20501;45.956;13.632;2024-03-23T05:40:23;100322.06;;;9.40;86.50
34237;BME280;20501;45.956;13.632;2024-03-23T05:42:49;100330.47;;;9.47;86.40
34237;BME280;20501;45.956;13.632;2024-03-23T05:45:14;100325.66;;;9.60;85.59
34237;BME280;20501;45.956;13.632;2024-03-23T05:47:39;100321.94;;;9.41;86.47
34237;BME280;20501;45.956;13.632;2024-03-23T05:50:05;100322.78;;;9.42;85.85
34237;BME280;20501;45.956;13.632;2024-03-23T05:52:31;100319.69;;;9.56;85.27
34237;BME280;20501;45.956;13.632;2024-03-23T05:54:56;100334.31;;;9.73;85.47
34237;BME280;20501;45.956;13.632;2024-03-23T05:57:23;100325.69;;;9.80;84.25
34237;BME280;20501;45.956;13.632;2024-03-23T05:59:48;100329.09;;;10.01;83.15
34237;BME280;20501;45.956;13.632;2024-03-23T06:02:14;100325.38;;;9.93;83.23
34237;BME280;20501;45.956;13.632;2024-03-23T06:04:39;100326.38;;;9.72;84.16
34237;BME280;20501;45.956;13.632;2024-03-23T06:07:05;100327.66;;;9.78;83.52
34237;BME280;20501;45.956;13.632;2024-03-23T06:09:39;100329.53;;;9.97;83.24
34237;BME280;20501;45.956;13.632;2024-03-23T06:12:05;100331.75;;;10.11;83.99
34237;BME280;20501;45.956;13.632;2024-03-23T06:14:30;100320.84;;;10.13;83.43
34237;BME280;20501;45.956;13.632;2024-03-23T06:16:55;100325.69;;;10.09;82.97
34237;BME280;20501;45.956;13.632;2024-03-23T06:19:21;100324.09;;;10.06;82.49
34237;BME280;20501;45.956;13.632;2024-03-23T06:21:46;100320.53;;;10.35;83.33
34237;BME280;20501;45.956;13.632;2024-03-23T06:24:12;100312.56;;;10.44;81.25
34237;BME280;20501;45.956;13.632;2024-03-23T06:26:38;100310.84;;;10.52;81.70
34237;BME280;20501;45.956;13.632;2024-03-23T06:29:03;100314.22;;;10.74;82.47
34237;BME280;20501;45.956;13.632;2024-03-23T06:31:30;100303.84;;;10.97;80.15
34237;BME280;20501;45.956;13.632;2024-03-23T06:33:55;100312.50;;;11.01;79.64
34237;BME280;20501;45.956;13.632;2024-03-23T06:36:21;100312.16;;;11.14;80.34
34237;BME280;20501;45.956;13.632;2024-03-23T06:38:46;100310.81;;;11.28;79.33
34237;BME280;20501;45.956;13.632;2024-03-23T06:41:12;100310.91;;;11.36;78.86
34237;BME280;20501;45.956;13.632;2024-03-23T06:43:37;100305.28;;;11.48;77.48
34237;BME280;20501;45.956;13.632;2024-03-23T06:46:03;100304.97;;;11.69;76.88
34237;BME280;20501;45.956;13.632;2024-03-23T06:48:29;100298.72;;;11.86;75.87
34237;BME280;20501;45.956;13.632;2024-03-23T06:50:56;100291.53;;;12.13;74.42
34237;BME280;20501;45.956;13.632;2024-03-23T06:53:21;100285.81;;;12.16;76.62
34237;BME280;20501;45.956;13.632;2024-03-23T06:55:50;100291.22;;;12.43;76.81
34237;BME280;20501;45.956;13.632;2024-03-23T06:58:16;100284.63;;;12.45;72.90
34237;BME280;20501;45.956;13.632;2024-03-23T07:00:41;100285.38;;;12.56;70.25
34237;BME280;20501;45.956;13.632;2024-03-23T07:03:07;100279.38;;;12.70;71.66
34237;BME280;20501;45.956;13.632;2024-03-23T07:05:33;100292.38;;;12.66;71.34
34237;BME280;20501;45.956;13.632;2024-03-23T07:07:58;100288.22;;;12.80;67.82
34237;BME280;20501;45.956;13.632;2024-03-23T07:10:23;100283.41;;;12.66;70.26
34237;BME280;20501;45.956;13.632;2024-03-23T07:12:49;100286.81;;;12.68;68.57
34237;BME280;20501;45.956;13.632;2024-03-23T07:15:14;100286.81;;;12.68;68.15
34237;BME280;20501;45.956;13.632;2024-03-23T07:17:41;100288.72;;;12.76;68.60
34237;BME280;20501;45.956;13.632;2024-03-23T07:20:06;100272.31;;;12.85;68.17
34237;BME280;20501;45.956;13.632;2024-03-23T07:22:35;100281.13;;;12.88;68.73
34237;BME280;20501;45.956;13.632;2024-03-23T07:25:01;100272.19;;;12.95;67.46
34237;BME280;20501;45.956;13.632;2024-03-23T07:27:27;100265.47;;;13.16;64.42
34237;BME280;20501;45.956;13.632;2024-03-23T07:29:52;100267.72;;;13.29;64.21
34237;BME280;20501;45.956;13.632;2024-03-23T07:32:18;100262.47;;;13.36;64.92
34237;BME280;20501;45.956;13.632;2024-03-23T07:34:44;100262.69;;;13.42;65.18
34237;BME280;20501;45.956;13.632;2024-03-23T07:37:12;100265.41;;;13.42;64.63
34237;BME280;20501;45.956;13.632;2024-03-23T07:39:37;100261.38;;;13.63;64.61
34237;BME280;20501;45.956;13.632;2024-03-23T07:42:04;100257.13;;;13.69;64.08
34237;BME280;20501;45.956;13.632;2024-03-23T07:44:30;100254.25;;;13.78;62.91
34237;BME280;20501;45.956;13.632;2024-03-23T07:46:55;100244.09;;;13.89;63.08
34237;BME280;20501;45.956;13.632;2024-03-23T07:49:21;100254.25;;;13.95;63.78
34237;BME280;20501;45.956;13.632;2024-03-23T07:51:47;100248.63;;;14.13;62.67
34237;BME280;20501;45.956;13.632;2024-03-23T07:54:13;100246.63;;;14.07;62.52
34237;BME280;20501;45.956;13.632;2024-03-23T07:56:38;100249.16;;;14.25;62.60
34237;BME280;20501;45.956;13.632;2024-03-23T07:59:04;100252.53;;;14.27;63.84
34237;BME280;20501;45.956;13.632;2024-03-23T08:01:29;100252.53;;;14.27;66.45
34237;BME280;20501;45.956;13.632;2024-03-23T08:03:55;100254.72;;;14.32;67.00
34237;BME280;20501;45.956;13.632;2024-03-23T08:06:21;100257.88;;;14.60;67.16
34237;BME280;20501;45.956;13.632;2024-03-23T08:08:50;100245.44;;;14.82;62.31
34237;BME280;20501;45.956;13.632;2024-03-23T08:11:16;100248.75;;;15.01;61.52
34237;BME280;20501;45.956;13.632;2024-03-23T08:13:45;100242.72;;;15.14;61.31
34237;BME280;20501;45.956;13.632;2024-03-23T08:16:10;100240.81;;;15.54;61.56
34237;BME280;20501;45.956;13.632;2024-03-23T08:18:36;100232.06;;;15.36;60.54
34237;BME280;20501;45.956;13.632;2024-03-23T08:21:05;100230.25;;;15.28;61.50
34237;BME280;20501;45.956;13.632;2024-03-23T08:23:32;100233.06;;;15.43;62.15
34237;BME280;20501;45.956;13.632;2024-03-23T08:26:08;100226.69;;;15.51;60.49
34237;BME280;20501;45.956;13.632;2024-03-23T08:28:34;100222.03;;;15.59;60.71
34237;BME280;20501;45.956;13.632;2024-03-23T08:31:10;100219.66;;;15.79;61.41
34237;BME280;20501;45.956;13.632;2024-03-23T08:33:36;100221.31;;;15.66;61.84
34237;BME280;20501;45.956;13.632;2024-03-23T08:36:05;100216.59;;;15.59;62.71
34237;BME280;20501;45.956;13.632;2024-03-23T08:38:31;100203.38;;;15.71;63.21
34237;BME280;20501;45.956;13.632;2024-03-23T08:43:26;100198.78;;;15.72;62.67
34237;BME280;20501;45.956;13.632;2024-03-23T08:45:52;100197.00;;;15.79;62.89
34237;BME280;20501;45.956;13.632;2024-03-23T08:48:21;100188.91;;;15.94;63.70
34237;BME280;20501;45.956;13.632;2024-03-23T08:50:47;100186.13;;;16.02;63.29
34237;BME280;20501;45.956;13.632;2024-03-23T08:53:13;100177.94;;;15.87;61.74
34237;BME280;20501;45.956;13.632;2024-03-23T08:55:38;100174.66;;;15.92;62.14
34237;BME280;20501;45.956;13.632;2024-03-23T08:58:03;100184.09;;;16.19;62.94
34237;BME280;20501;45.956;13.632;2024-03-23T09:00:29;100179.66;;;16.33;60.32
34237;BME280;20501;45.956;13.632;2024-03-23T09:02:55;100181.63;;;16.24;61.23
34237;BME280;20501;45.956;13.632;2024-03-23T09:05:22;100176.38;;;16.23;61.39
34237;BME280;20501;45.956;13.632;2024-03-23T09:07:49;100170.53;;;16.26;60.79
34237;BME280;20501;45.956;13.632;2024-03-23T09:10:14;100176.06;;;16.33;60.54
34237;BME280;20501;45.956;13.632;2024-03-23T09:12:40;100165.72;;;16.43;61.15
34237;BME280;20501;45.956;13.632;2024-03-23T09:15:05;100176.06;;;16.18;60.55
34237;BME280;20501;45.956;13.632;2024-03-23T09:17:31;100164.44;;;16.24;61.74
34237;BME280;20501;45.956;13.632;2024-03-23T09:19:56;100156.06;;;16.40;60.55
34237;BME280;20501;45.956;13.632;2024-03-23T09:22:21;100156.25;;;16.54;60.82
34237;BME280;20501;45.956;13.632;2024-03-23T09:24:47;100157.84;;;16.63;59.46
34237;BME280;20501;45.956;13.632;2024-03-23T09:27:12;100164.06;;;16.57;59.81
34237;BME280;20501;45.956;13.632;2024-03-23T09:29:38;100154.72;;;16.66;59.45
34237;BME280;20501;45.956;13.632;2024-03-23T09:32:03;100156.38;;;16.82;58.47
34237;BME280;20501;45.956;13.632;2024-03-23T09:34:29;100152.78;;;16.97;57.80
34237;BME280;20501;45.956;13.632;2024-03-23T09:36:54;100151.84;;;16.90;56.72
34237;BME280;20501;45.956;13.632;2024-03-23T09:39:19;100145.94;;;16.86;57.66
34237;BME280;20501;45.956;13.632;2024-03-23T09:41:45;100140.38;;;16.94;56.93
34237;BME280;20501;45.956;13.632;2024-03-23T09:44:11;100141.25;;;16.95;57.38
34237;BME280;20501;45.956;13.632;2024-03-23T09:46:36;100136.84;;;16.94;57.27
34237;BME280;20501;45.956;13.632;2024-03-23T09:49:05;100133.00;;;17.10;57.33
34237;BME280;20501;45.956;13.632;2024-03-23T09:51:35;100136.91;;;17.44;57.06
34237;BME280;20501;45.956;13.632;2024-03-23T09:54:00;100125.78;;;17.24;57.37
34237;BME280;20501;45.956;13.632;2024-03-23T09:56:26;100124.09;;;17.23;57.68
34237;BME280;20501;45.956;13.632;2024-03-23T09:59:00;100117.03;;;17.28;58.06
34237;BME280;20501;45.956;13.632;2024-03-23T10:01:25;100114.09;;;17.30;58.44
34237;BME280;20501;45.956;13.632;2024-03-23T10:03:51;100117.81;;;17.44;56.99
34237;BME280;20501;45.956;13.632;2024-03-23T10:06:21;100111.09;;;17.46;53.08
34237;BME280;20501;45.956;13.632;2024-03-23T10:08:47;100105.28;;;17.56;53.04
34237;BME280;20501;45.956;13.632;2024-03-23T10:11:16;100102.91;;;17.46;51.51
34237;BME280;20501;45.956;13.632;2024-03-23T10:13:43;100101.28;;;17.52;51.77
34237;BME280;20501;45.956;13.632;2024-03-23T10:16:09;100101.16;;;17.67;51.16
34237;BME280;20501;45.956;13.632;2024-03-23T10:18:38;100092.16;;;17.73;50.98
34237;BME280;20501;45.956;13.632;2024-03-23T10:21:10;100087.06;;;17.63;50.39
34237;BME280;20501;45.956;13.632;2024-03-23T10:23:40;100082.22;;;17.59;50.52
34237;BME280;20501;45.956;13.632;2024-03-23T10:29:10;100056.94;;;17.50;49.18
34237;BME280;20501;45.956;13.632;2024-03-23T10:31:37;100052.78;;;17.61;50.40
34237;BME280;20501;45.956;13.632;2024-03-23T10:34:06;100057.19;;;17.33;49.61
34237;BME280;20501;45.956;13.632;2024-03-23T10:36:34;100057.19;;;17.33;49.50
34237;BME280;20501;45.956;13.632;2024-03-23T10:38:59;100055.84;;;17.44;48.73
34237;BME280;20501;45.956;13.632;2024-03-23T10:41:28;100057.47;;;17.67;48.38
34237;BME280;20501;45.956;13.632;2024-03-23T10:43:57;100046.25;;;17.90;48.09
34237;BME280;20501;45.956;13.632;2024-03-23T10:46:23;100036.09;;;17.77;47.23
34237;BME280;20501;45.956;13.632;2024-03-23T10:48:48;100035.41;;;17.69;46.66
34237;BME280;20501;45.956;13.632;2024-03-23T10:51:14;100037.25;;;17.61;46.60
34237;BME280;20501;45.956;13.632;2024-03-23T10:53:40;100032.50;;;17.70;46.84
34237;BME280;20501;45.956;13.632;2024-03-23T10:56:06;100026.81;;;18.00;47.12
34237;BME280;20501;45.956;13.632;2024-03-23T10:58:40;100019.00;;;17.69;46.54
34237;BME280;20501;45.956;13.632;2024-03-23T11:01:06;100019.16;;;17.89;46.19
34237;BME280;20501;45.956;13.632;2024-03-23T11:03:36;100012.75;;;18.10;46.31
34237;BME280;20501;45.956;13.632;2024-03-23T11:06:03;100012.97;;;18.08;45.90
34237;BME280;20501;45.956;13.632;2024-03-23T11:08:32;100000.25;;;17.94;45.47
34237;BME280;20501;45.956;13.632;2024-03-23T11:11:17;99991.84;;;17.95;47.03
34237;BME280;20501;45.956;13.632;2024-03-23T11:13:44;99995.56;;;18.23;45.87
34237;BME280;20501;45.956;13.632;2024-03-23T11:16:31;99988.44;;;18.29;46.52
34237;BME280;20501;45.956;13.632;2024-03-23T11:19:36;99997.94;;;18.39;47.30
34237;BME280;20501;45.956;13.632;2024-03-23T11:22:02;99973.50;;;18.24;46.81
34237;BME280;20501;45.956;13.632;2024-03-23T11:24:28;99975.19;;;18.25;47.44
34237;BME280;20501;45.956;13.632;2024-03-23T11:26:54;99964.44;;;18.31;46.51
34237;BME280;20501;45.956;13.632;2024-03-23T11:29:20;99962.81;;;18.43;46.22
34237;BME280;20501;45.956;13.632;2024-03-23T11:31:48;99956.09;;;18.52;46.92
34237;BME280;20501;45.956;13.632;2024-03-23T11:34:17;99942.22;;;18.61;47.83
34237;BME280;20501;45.956;13.632;2024-03-23T11:36:44;99941.16;;;18.75;48.18
34237;BME280;20501;45.956;13.632;2024-03-23T11:39:19;99938.44;;;18.48;47.65
34237;BME280;20501;45.956;13.632;2024-03-23T11:41:56;99933.31;;;18.25;48.18
34237;BME280;20501;45.956;13.632;2024-03-23T11:44:23;99930.16;;;18.28;48.43
34237;BME280;20501;45.956;13.632;2024-03-23T11:46:50;99921.16;;;18.34;49.34
34237;BME280;20501;45.956;13.632;2024-03-23T11:49:21;99918.03;;;18.58;50.27
34237;BME280;20501;45.956;13.632;2024-03-23T11:51:48;99907.50;;;18.41;51.05
34237;BME280;20501;45.956;13.632;2024-03-23T11:54:13;99908.69;;;18.25;52.18
34237;BME280;20501;45.956;13.632;2024-03-23T11:56:39;99899.66;;;18.18;52.15
34237;BME280;20501;45.956;13.632;2024-03-23T11:59:04;99903.25;;;18.18;52.09
34237;BME280;20501;45.956;13.632;2024-03-23T12:01:30;99890.00;;;18.15;52.05
34237;BME280;20501;45.956;13.632;2024-03-23T12:03:56;99884.56;;;18.29;51.94
34237;BME280;20501;45.956;13.632;2024-03-23T12:06:21;99867.28;;;18.21;53.22
34237;BME280;20501;45.956;13.632;2024-03-23T12:08:47;99867.31;;;18.35;54.17
34237;BME280;20501;45.956;13.632;2024-03-23T12:11:17;99873.69;;;17.87;55.16
34237;BME280;20501;45.956;13.632;2024-03-23T12:13:44;99861.09;;;17.86;55.25
34237;BME280;20501;45.956;13.632;2024-03-23T12:16:11;99855.84;;;17.91;56.12
34237;BME280;20501;45.956;13.632;2024-03-23T12:18:42;99853.38;;;18.03;56.34
34237;BME280;20501;45.956;13.632;2024-03-23T12:21:08;99841.81;;;18.01;56.84
34237;BME280;20501;45.956;13.632;2024-03-23T12:23:34;99852.31;;;17.97;57.76
34237;BME280;20501;45.956;13.632;2024-03-23T12:25:59;99839.88;;;17.88;57.68
34237;BME280;20501;45.956;13.632;2024-03-23T12:28:25;99838.56;;;17.84;58.92
34237;BME280;20501;45.956;13.632;2024-03-23T12:30:51;99832.09;;;17.91;59.46
34237;BME280;20501;45.956;13.632;2024-03-23T12:33:17;99825.22;;;18.16;58.60
34237;BME280;20501;45.956;13.632;2024-03-23T12:35:42;99824.13;;;17.90;59.59
34237;BME280;20501;45.956;13.632;2024-03-23T12:38:08;99823.69;;;17.86;60.79
34237;BME280;20501;45.956;13.632;2024-03-23T12:40:33;99816.28;;;17.73;60.57
34237;BME280;20501;45.956;13.632;2024-03-23T12:42:59;99817.31;;;17.66;60.48
34237;BME280;20501;45.956;13.632;2024-03-23T12:45:24;99803.66;;;17.72;60.26
34237;BME280;20501;45.956;13.632;2024-03-23T12:47:49;99804.75;;;17.85;60.92
34237;BME280;20501;45.956;13.632;2024-03-23T12:50:17;99794.06;;;17.90;60.03
34237;BME280;20501;45.956;13.632;2024-03-23T12:52:43;99799.34;;;18.25;56.16
34237;BME280;20501;45.956;13.632;2024-03-23T12:55:08;99795.59;;;18.19;56.69
34237;BME280;20501;45.956;13.632;2024-03-23T12:57:33;99785.50;;;18.20;57.34
34237;BME280;20501;45.956;13.632;2024-03-23T12:59:59;99771.16;;;18.58;56.92
34237;BME280;20501;45.956;13.632;2024-03-23T13:02:25;99773.47;;;18.75;53.83
34237;BME280;20501;45.956;13.632;2024-03-23T13:04:52;99764.44;;;18.67;51.34
34237;BME280;20501;45.956;13.632;2024-03-23T13:07:18;99769.63;;;19.02;51.55
34237;BME280;20501;45.956;13.632;2024-03-23T13:09:44;99761.19;;;19.49;50.43
34237;BME280;20501;45.956;13.632;2024-03-23T13:12:09;99747.78;;;19.34;50.98
34237;BME280;20501;45.956;13.632;2024-03-23T13:14:35;99752.78;;;19.06;51.37
34237;BME280;20501;45.956;13.632;2024-03-23T13:17:00;99747.63;;;19.29;51.84
34237;BME280;20501;45.956;13.632;2024-03-23T13:19:27;99738.69;;;19.47;50.99
34237;BME280;20501;45.956;13.632;2024-03-23T13:21:56;99743.03;;;19.55;51.24
34237;BME280;20501;45.956;13.632;2024-03-23T13:24:22;99740.81;;;19.77;51.64
34237;BME280;20501;45.956;13.632;2024-03-23T13:26:50;99747.13;;;20.10;50.20
34237;BME280;20501;45.956;13.632;2024-03-23T13:29:15;99741.09;;;20.01;49.98
34237;BME280;20501;45.956;13.632;2024-03-23T13:31:41;99740.63;;;20.04;50.50
34237;BME280;20501;45.956;13.632;2024-03-23T13:34:06;99736.97;;;19.92;52.90
34237;BME280;20501;45.956;13.632;2024-03-23T13:36:31;99730.00;;;20.40;50.89
34237;BME280;20501;45.956;13.632;2024-03-23T13:38:57;99724.97;;;20.55;50.84